createdAt,value
2023-03-03T00:00:41.246Z,1005.6
2023-03-03T00:01:57.560Z,1005.6
2023-03-03T00:04:30.131Z,1005.6
2023-03-03T00:05:46.432Z,1005.7
2023-03-03T00:07:02.725Z,1005.6
2023-03-03T00:08:19.019Z,1005.5
2023-03-03T00:09:35.325Z,1005.6
2023-03-03T00:12:07.917Z,1005.6
2023-03-03T00:13:23.211Z,1005.6
2023-03-03T00:14:39.509Z,1005.6
2023-03-03T00:15:55.817Z,1005.6
2023-03-03T00:17:12.114Z,1005.6
2023-03-03T00:18:28.404Z,1005.6
2023-03-03T00:19:44.689Z,1005.6
2023-03-03T00:21:00.996Z,1005.6
2023-03-03T00:22:17.275Z,1005.6
2023-03-03T00:23:33.582Z,1005.6
2023-03-03T00:24:49.885Z,1005.6
2023-03-03T00:27:22.468Z,1005.6
2023-03-03T00:28:37.782Z,1005.5
2023-03-03T00:29:53.083Z,1005.6
2023-03-03T00:31:09.000Z,1005.6
2023-03-03T00:32:25.687Z,1005.6
2023-03-03T00:33:41.976Z,1005.6
2023-03-03T00:34:58.281Z,1005.5
2023-03-03T00:36:14.566Z,1005.5
2023-03-03T00:37:30.868Z,1005.5
2023-03-03T00:38:47.155Z,1005.5
2023-03-03T00:42:36.046Z,1005.5
2023-03-03T00:43:52.331Z,1005.5
2023-03-03T00:45:07.651Z,1005.5
2023-03-03T00:46:22.961Z,1005.5
2023-03-03T00:47:39.269Z,1005.6
2023-03-03T00:48:55.549Z,1005.6
2023-03-03T00:50:11.861Z,1005.7
2023-03-03T00:51:28.148Z,1005.6
2023-03-03T00:52:44.448Z,1005.6
2023-03-03T00:54:00.744Z,1005.7
2023-03-03T00:55:17.041Z,1005.6
2023-03-03T00:56:33.325Z,1005.6
2023-03-03T00:57:49.628Z,1005.5
2023-03-03T00:59:06.060Z,1005.6
2023-03-03T01:00:21.362Z,1005.6
2023-03-03T01:01:37.661Z,1005.7
2023-03-03T01:02:53.952Z,1005.7
2023-03-03T01:04:10.255Z,1005.6
2023-03-03T01:05:26.544Z,1005.6
2023-03-03T01:06:42.838Z,1005.6
2023-03-03T01:07:59.139Z,1005.7
2023-03-03T01:09:15.426Z,1005.7
2023-03-03T01:10:31.730Z,1005.6
2023-03-03T01:11:48.018Z,1005.6
2023-03-03T01:13:03.338Z,1005.6
2023-03-03T01:15:36.059Z,1005.5
2023-03-03T01:16:52.349Z,1005.6
2023-03-03T01:18:08.655Z,1005.6
2023-03-03T01:19:24.945Z,1005.6
2023-03-03T01:20:41.232Z,1005.6
2023-03-03T01:21:57.538Z,1005.6
2023-03-03T01:23:13.821Z,1005.5
2023-03-03T01:24:30.117Z,1005.5
2023-03-03T01:25:46.411Z,1005.5
2023-03-03T01:28:19.013Z,1005.5
2023-03-03T01:29:35.308Z,1005.5
2023-03-03T01:30:50.601Z,1005.5
2023-03-03T01:32:06.910Z,1005.4
2023-03-03T01:33:23.190Z,1005.5
2023-03-03T01:34:39.494Z,1005.4
2023-03-03T01:35:55.786Z,1005.5
2023-03-03T01:37:12.077Z,1005.4
2023-03-03T01:38:28.375Z,1005.4
2023-03-03T01:39:44.670Z,1005.4
2023-03-03T01:41:00.963Z,1005.4
2023-03-03T01:42:17.266Z,1005.3
2023-03-03T01:43:33.568Z,1005.4
2023-03-03T01:44:49.853Z,1005.4
2023-03-03T01:46:06.143Z,1005.4
2023-03-03T01:47:22.562Z,1005.4
2023-03-03T01:48:38.866Z,1005.4
2023-03-03T01:49:55.162Z,1005.4
2023-03-03T01:51:11.460Z,1005.4
2023-03-03T01:52:27.744Z,1005.4
2023-03-03T01:53:44.050Z,1005.4
2023-03-03T01:55:00.000Z,1005.3
2023-03-03T01:56:16.634Z,1005.4
2023-03-03T01:58:49.231Z,1005.4
2023-03-03T02:00:04.531Z,1005.5
2023-03-03T02:01:20.828Z,1005.4
2023-03-03T02:02:37.129Z,1005.4
2023-03-03T02:03:53.429Z,1005.3
2023-03-03T02:05:09.730Z,1005.4
2023-03-03T02:06:26.015Z,1005.5
2023-03-03T02:07:42.311Z,1005.4
2023-03-03T02:08:58.606Z,1005.4
2023-03-03T02:10:14.908Z,1005.4
2023-03-03T02:11:31.198Z,1005.4
2023-03-03T02:12:47.496Z,1005.4
2023-03-03T02:14:03.779Z,1005.5
2023-03-03T02:15:20.082Z,1005.5
2023-03-03T02:16:35.380Z,1005.5
2023-03-03T02:17:51.688Z,1005.5
2023-03-03T02:19:07.970Z,1005.5
2023-03-03T02:20:24.273Z,1005.5
2023-03-03T02:21:40.562Z,1005.4
2023-03-03T02:22:56.857Z,1005.5
2023-03-03T02:24:13.157Z,1005.5
2023-03-03T02:25:29.444Z,1005.5
2023-03-03T02:26:45.759Z,1005.5
2023-03-03T02:28:02.044Z,1005.5
2023-03-03T02:29:18.335Z,1005.6
2023-03-03T02:30:34.641Z,1005.5
2023-03-03T02:31:50.925Z,1005.5
2023-03-03T02:33:06.242Z,1005.5
2023-03-03T02:34:22.531Z,1005.5
2023-03-03T02:35:38.838Z,1005.5
2023-03-03T02:36:55.120Z,1005.5
2023-03-03T02:38:11.425Z,1005.5
2023-03-03T02:39:27.714Z,1005.5
2023-03-03T02:40:44.009Z,1005.5
2023-03-03T02:42:00.308Z,1005.5
2023-03-03T02:43:16.596Z,1005.5
2023-03-03T02:44:32.887Z,1005.4
2023-03-03T02:45:49.187Z,1005.6
2023-03-03T02:47:05.487Z,1005.6
2023-03-03T02:48:21.771Z,1005.7
2023-03-03T02:49:37.096Z,1005.7
2023-03-03T02:50:53.381Z,1005.7
2023-03-03T02:52:09.690Z,1005.6
2023-03-03T02:53:25.972Z,1005.6
2023-03-03T02:54:42.281Z,1005.6
2023-03-03T02:55:58.559Z,1005.5
2023-03-03T02:57:14.855Z,1005.6
2023-03-03T02:58:31.152Z,1005.6
2023-03-03T02:59:47.455Z,1005.5
2023-03-03T03:01:03.739Z,1005.4
2023-03-03T03:02:20.052Z,1005.5
2023-03-03T03:03:36.332Z,1005.4
2023-03-03T03:04:52.621Z,1005.4
2023-03-03T03:06:07.949Z,1005.4
2023-03-03T03:07:24.232Z,1005.4
2023-03-03T03:08:40.527Z,1005.3
2023-03-03T03:09:56.828Z,1005.3
2023-03-03T03:11:13.126Z,1005.3
2023-03-03T03:12:29.419Z,1005.2
2023-03-03T03:13:45.718Z,1005.2
2023-03-03T03:15:02.006Z,1005.2
2023-03-03T03:16:18.297Z,1005.2
2023-03-03T03:17:34.597Z,1005.2
2023-03-03T03:18:50.891Z,1005.2
2023-03-03T03:20:07.181Z,1005.2
2023-03-03T03:22:39.787Z,1005.2
2023-03-03T03:23:55.097Z,1005.2
2023-03-03T03:25:11.387Z,1005.2
2023-03-03T03:26:27.685Z,1005.3
2023-03-03T03:27:43.978Z,1005.4
2023-03-03T03:29:00.270Z,1005.3
2023-03-03T03:30:16.569Z,1005.4
2023-03-03T03:31:32.856Z,1005.5
2023-03-03T03:32:49.158Z,1005.5
2023-03-03T03:34:05.445Z,1005.6
2023-03-03T03:35:21.745Z,1005.6
2023-03-03T03:36:38.050Z,1005.6
2023-03-03T03:37:54.333Z,1005.6
2023-03-03T03:39:10.632Z,1005.6
2023-03-03T03:40:25.935Z,1005.6
2023-03-03T03:41:42.234Z,1005.7
2023-03-03T03:42:58.529Z,1005.7
2023-03-03T03:44:14.824Z,1005.6
2023-03-03T03:45:31.117Z,1005.7
2023-03-03T03:46:47.408Z,1005.7
2023-03-03T03:48:03.721Z,1005.7
2023-03-03T03:49:19.997Z,1005.6
2023-03-03T03:50:36.295Z,1005.5
2023-03-03T03:51:52.601Z,1005.5
2023-03-03T03:53:08.892Z,1005.5
2023-03-03T03:54:25.187Z,1005.4
2023-03-03T03:55:41.486Z,1005.6
2023-03-03T03:56:56.798Z,1005.5
2023-03-03T03:58:13.088Z,1005.5
2023-03-03T03:59:29.377Z,1005.5
2023-03-03T04:00:45.680Z,1005.5
2023-03-03T04:02:01.982Z,1005.7
2023-03-03T04:03:18.277Z,1005.7
2023-03-03T04:04:34.555Z,1005.7
2023-03-03T04:05:50.854Z,1005.7
2023-03-03T04:07:07.153Z,1005.7
2023-03-03T04:08:23.460Z,1005.7
2023-03-03T04:09:39.737Z,1005.7
2023-03-03T04:10:56.040Z,1005.7
2023-03-03T04:12:12.342Z,1005.7
2023-03-03T04:13:27.636Z,1005.7
2023-03-03T04:14:43.941Z,1005.7
2023-03-03T04:16:00.240Z,1005.7
2023-03-03T04:17:16.524Z,1005.7
2023-03-03T04:18:32.828Z,1005.7
2023-03-03T04:19:49.132Z,1005.7
2023-03-03T04:21:05.420Z,1005.7
2023-03-03T04:22:21.713Z,1005.7
2023-03-03T04:23:38.011Z,1005.7
2023-03-03T04:26:10.592Z,1005.8
2023-03-03T04:27:26.895Z,1005.8
2023-03-03T04:28:43.180Z,1005.8
2023-03-03T04:29:58.503Z,1005.8
2023-03-03T04:31:14.793Z,1005.9
2023-03-03T04:32:31.093Z,1005.8
2023-03-03T04:33:47.388Z,1005.8
2023-03-03T04:35:03.686Z,1005.8
2023-03-03T04:36:19.980Z,1005.8
2023-03-03T04:37:36.261Z,1005.8
2023-03-03T04:38:52.565Z,1005.8
2023-03-03T04:40:08.857Z,1005.8
2023-03-03T04:41:25.153Z,1005.8
2023-03-03T04:42:41.444Z,1005.8
2023-03-03T04:43:57.739Z,1005.9
2023-03-03T04:45:14.051Z,1005.9
2023-03-03T04:46:29.342Z,1005.9
2023-03-03T04:47:45.638Z,1006
2023-03-03T04:49:01.000Z,1005.9
2023-03-03T04:50:18.230Z,1005.8
2023-03-03T04:51:34.537Z,1005.8
2023-03-03T04:52:50.831Z,1005.7
2023-03-03T04:54:07.131Z,1005.7
2023-03-03T04:55:23.428Z,1005.7
2023-03-03T04:56:39.710Z,1005.8
2023-03-03T04:57:55.999Z,1005.7
2023-03-03T04:59:12.295Z,1005.7
2023-03-03T05:00:28.609Z,1005.7
2023-03-03T05:01:44.893Z,1005.7
2023-03-03T05:03:00.201Z,1005.7
2023-03-03T05:04:16.500Z,1005.7
2023-03-03T05:05:32.802Z,1005.8
2023-03-03T05:06:49.097Z,1005.8
2023-03-03T05:08:05.378Z,1005.8
2023-03-03T05:09:21.686Z,1005.8
2023-03-03T05:10:37.979Z,1005.9
2023-03-03T05:11:54.271Z,1005.9
2023-03-03T05:13:10.575Z,1005.8
2023-03-03T05:14:26.871Z,1005.8
2023-03-03T05:15:43.152Z,1005.9
2023-03-03T05:16:59.456Z,1005.9
2023-03-03T05:19:32.042Z,1005.9
2023-03-03T05:20:47.348Z,1006
2023-03-03T05:22:03.595Z,1006
2023-03-03T05:23:19.882Z,1006
2023-03-03T05:24:36.153Z,1005.9
2023-03-03T05:25:52.375Z,1005.9
2023-03-03T05:27:08.683Z,1005.9
2023-03-03T05:28:24.975Z,1006
2023-03-03T05:29:41.227Z,1006
2023-03-03T05:30:57.465Z,1005.9
2023-03-03T05:32:13.758Z,1005.9
2023-03-03T05:33:30.024Z,1006
2023-03-03T05:34:46.259Z,1006
2023-03-03T05:36:02.489Z,1005.9
2023-03-03T05:37:17.766Z,1006
2023-03-03T05:38:34.002Z,1005.9
2023-03-03T05:39:50.228Z,1006
2023-03-03T05:41:06.470Z,1005.9
2023-03-03T05:42:22.723Z,1005.9
2023-03-03T05:43:38.959Z,1005.9
2023-03-03T05:44:55.208Z,1005.9
2023-03-03T05:46:11.452Z,1005.9
2023-03-03T05:47:27.684Z,1005.9
2023-03-03T05:48:43.931Z,1005.9
2023-03-03T05:50:00.172Z,1005.8
2023-03-03T05:51:16.404Z,1005.8
2023-03-03T05:52:32.652Z,1005.7
2023-03-03T05:55:04.145Z,1005.8
2023-03-03T05:56:20.388Z,1005.7
2023-03-03T05:57:36.634Z,1005.8
2023-03-03T05:58:52.873Z,1005.7
2023-03-03T06:00:09.112Z,1005.8
2023-03-03T06:01:25.357Z,1005.8
2023-03-03T06:02:41.590Z,1005.8
2023-03-03T06:03:57.825Z,1005.8
2023-03-03T06:05:14.075Z,1005.9
2023-03-03T06:06:30.317Z,1005.9
2023-03-03T06:07:46.567Z,1006
2023-03-03T06:09:02.809Z,1006
2023-03-03T06:10:18.053Z,1006
2023-03-03T06:11:34.288Z,1006.1
2023-03-03T06:12:50.531Z,1006.1
2023-03-03T06:14:06.779Z,1006.1
2023-03-03T06:15:22.036Z,1006.1
2023-03-03T06:16:38.287Z,1006.2
2023-03-03T06:17:54.519Z,1006.1
2023-03-03T06:19:10.763Z,1006.2
2023-03-03T06:20:26.998Z,1006.1
2023-03-03T06:21:43.258Z,1006.1
2023-03-03T06:22:59.493Z,1006.1
2023-03-03T06:24:15.736Z,1006.1
2023-03-03T06:25:31.969Z,1006.2
2023-03-03T06:26:48.223Z,1006.2
2023-03-03T06:28:04.446Z,1006.2
2023-03-03T06:29:20.700Z,1006.1
2023-03-03T06:30:36.937Z,1006.2
2023-03-03T06:31:52.198Z,1006.1
2023-03-03T06:33:08.429Z,1006.2
2023-03-03T06:34:24.684Z,1006.1
2023-03-03T06:35:40.927Z,1006.1
2023-03-03T06:36:57.162Z,1006.1
2023-03-03T06:38:13.392Z,1006.1
2023-03-03T06:39:29.640Z,1006.1
2023-03-03T06:40:45.877Z,1006
2023-03-03T06:43:18.371Z,1006
2023-03-03T06:44:34.597Z,1006
2023-03-03T06:45:50.857Z,1006
2023-03-03T06:47:07.093Z,1006.1
2023-03-03T06:48:22.341Z,1006.1
2023-03-03T06:49:38.584Z,1006.1
2023-03-03T06:50:54.831Z,1006.1
2023-03-03T06:52:11.066Z,1006.2
2023-03-03T06:53:27.316Z,1006.2
2023-03-03T06:54:43.553Z,1006.2
2023-03-03T06:55:59.788Z,1006.2
2023-03-03T06:57:16.036Z,1006.2
2023-03-03T06:58:32.282Z,1006.2
2023-03-03T06:59:48.520Z,1006.3
2023-03-03T07:01:04.759Z,1006.4
2023-03-03T07:02:20.987Z,1006.4
2023-03-03T07:03:37.246Z,1006.4
2023-03-03T07:04:52.487Z,1006.5
2023-03-03T07:06:08.730Z,1006.5
2023-03-03T07:07:24.970Z,1006.4
2023-03-03T07:08:41.209Z,1006.5
2023-03-03T07:11:13.701Z,1006.5
2023-03-03T07:12:29.943Z,1006.5
2023-03-03T07:13:46.178Z,1006.5
2023-03-03T07:15:02.433Z,1006.6
2023-03-03T07:16:18.674Z,1006.6
2023-03-03T07:17:34.913Z,1006.5
2023-03-03T07:18:51.150Z,1006.6
2023-03-03T07:20:07.382Z,1006.6
2023-03-03T07:21:22.639Z,1006.6
2023-03-03T07:22:38.883Z,1006.6
2023-03-03T07:23:55.136Z,1006.7
2023-03-03T07:25:11.363Z,1006.7
2023-03-03T07:26:27.000Z,1006.7
2023-03-03T07:27:43.850Z,1006.7
2023-03-03T07:29:00.094Z,1006.7
2023-03-03T07:30:16.342Z,1006.7
2023-03-03T07:31:32.569Z,1006.7
2023-03-03T07:32:48.813Z,1006.7
2023-03-03T07:34:05.066Z,1006.8
2023-03-03T07:35:21.300Z,1006.8
2023-03-03T07:36:37.544Z,1006.7
2023-03-03T07:37:52.793Z,1006.9
2023-03-03T07:39:09.044Z,1006.9
2023-03-03T07:40:25.279Z,1006.9
2023-03-03T07:41:41.518Z,1006.9
2023-03-03T07:42:57.758Z,1006.8
2023-03-03T07:44:13.997Z,1006.8
2023-03-03T07:45:30.238Z,1006.8
2023-03-03T07:46:46.489Z,1006.8
2023-03-03T07:48:02.730Z,1006.8
2023-03-03T07:49:18.967Z,1006.7
2023-03-03T07:50:35.212Z,1006.7
2023-03-03T07:51:51.447Z,1006.7
2023-03-03T07:53:07.678Z,1006.8
2023-03-03T07:54:22.951Z,1006.8
2023-03-03T07:55:39.180Z,1006.7
2023-03-03T07:56:55.426Z,1006.8
2023-03-03T07:58:11.673Z,1006.8
2023-03-03T07:59:27.917Z,1006.8
2023-03-03T08:00:44.157Z,1006.9
2023-03-03T08:02:00.392Z,1006.8
2023-03-03T08:03:16.639Z,1006.8
2023-03-03T08:04:32.869Z,1006.8
2023-03-03T08:05:49.109Z,1006.8
2023-03-03T08:07:05.352Z,1006.9
2023-03-03T08:08:21.600Z,1006.8
2023-03-03T08:09:37.841Z,1006.9
2023-03-03T08:10:53.092Z,1006.8
2023-03-03T08:12:09.332Z,1006.8
2023-03-03T08:13:25.575Z,1006.7
2023-03-03T08:14:41.819Z,1006.8
2023-03-03T08:15:58.064Z,1006.7
2023-03-03T08:17:14.308Z,1006.7
2023-03-03T08:18:30.539Z,1006.7
2023-03-03T08:19:46.773Z,1006.8
2023-03-03T08:21:03.021Z,1006.8
2023-03-03T08:22:19.259Z,1006.7
2023-03-03T08:23:35.500Z,1006.7
2023-03-03T08:24:51.744Z,1006.7
2023-03-03T08:26:07.987Z,1006.8
2023-03-03T08:27:23.233Z,1006.7
2023-03-03T08:28:39.466Z,1006.8
2023-03-03T08:29:55.715Z,1006.8
2023-03-03T08:31:11.949Z,1006.7
2023-03-03T08:32:28.203Z,1006.7
2023-03-03T08:33:44.436Z,1006.8
2023-03-03T08:35:00.673Z,1006.8
2023-03-03T08:36:16.915Z,1006.8
2023-03-03T08:37:33.171Z,1006.8
2023-03-03T08:38:49.410Z,1006.8
2023-03-03T08:40:05.651Z,1006.8
2023-03-03T08:41:21.886Z,1006.8
2023-03-03T08:42:38.132Z,1006.8
2023-03-03T08:43:54.359Z,1006.8
2023-03-03T08:45:10.740Z,1006.8
2023-03-03T08:46:26.976Z,1006.9
2023-03-03T08:47:43.222Z,1006.9
2023-03-03T08:48:59.459Z,1006.9
2023-03-03T08:50:15.693Z,1006.9
2023-03-03T08:51:31.939Z,1006.9
2023-03-03T08:52:48.186Z,1007
2023-03-03T08:54:04.427Z,1006.9
2023-03-03T08:55:20.667Z,1006.9
2023-03-03T08:56:36.899Z,1007
2023-03-03T08:57:53.146Z,1007
2023-03-03T08:59:09.381Z,1006.9
2023-03-03T09:00:25.613Z,1007
2023-03-03T09:01:40.875Z,1007
2023-03-03T09:02:57.112Z,1007
2023-03-03T09:04:13.367Z,1007
2023-03-03T09:05:29.601Z,1007
2023-03-03T09:06:45.841Z,1007
2023-03-03T09:08:02.080Z,1007
2023-03-03T09:09:18.325Z,1007.1
2023-03-03T09:10:34.563Z,1007
2023-03-03T09:11:50.810Z,1007
2023-03-03T09:13:07.042Z,1007
2023-03-03T09:14:23.286Z,1007.1
2023-03-03T09:15:39.521Z,1007.1
2023-03-03T09:16:55.777Z,1007.1
2023-03-03T09:18:11.032Z,1007
2023-03-03T09:19:27.266Z,1007
2023-03-03T09:20:43.519Z,1007
2023-03-03T09:21:59.745Z,1006.9
2023-03-03T09:23:15.995Z,1006.9
2023-03-03T09:24:32.224Z,1007
2023-03-03T09:25:48.475Z,1006.9
2023-03-03T09:27:04.704Z,1007
2023-03-03T09:28:20.958Z,1006.9
2023-03-03T09:29:37.190Z,1007
2023-03-03T09:30:53.446Z,1007
2023-03-03T09:32:09.671Z,1007.1
2023-03-03T09:33:25.915Z,1007.1
2023-03-03T09:34:41.174Z,1007
2023-03-03T09:35:57.417Z,1007.1
2023-03-03T09:37:13.667Z,1007.1
2023-03-03T09:38:29.892Z,1007.1
2023-03-03T09:39:46.146Z,1007.1
2023-03-03T09:41:02.388Z,1007.1
2023-03-03T09:42:18.621Z,1007.1
2023-03-03T09:43:34.857Z,1007.2
2023-03-03T09:44:51.093Z,1007.1
2023-03-03T09:46:07.345Z,1007.1
2023-03-03T09:47:23.591Z,1007.1
2023-03-03T09:48:39.835Z,1007.1
2023-03-03T09:49:56.065Z,1007.1
2023-03-03T09:51:11.324Z,1007.1
2023-03-03T09:52:27.560Z,1007.1
2023-03-03T09:53:43.815Z,1007
2023-03-03T09:55:00.053Z,1007
2023-03-03T09:56:16.290Z,1007
2023-03-03T09:57:32.535Z,1007
2023-03-03T09:58:48.764Z,1007
2023-03-03T10:00:05.019Z,1007
2023-03-03T10:01:21.257Z,1007
2023-03-03T10:02:37.499Z,1007
2023-03-03T10:03:53.741Z,1007
2023-03-03T10:05:09.971Z,1007
2023-03-03T10:06:26.213Z,1006.9
2023-03-03T10:07:41.481Z,1007
2023-03-03T10:08:57.713Z,1007
2023-03-03T10:10:13.950Z,1007
2023-03-03T10:11:30.191Z,1007.1
2023-03-03T10:12:46.438Z,1007.1
2023-03-03T10:14:02.666Z,1007.1
2023-03-03T10:15:18.924Z,1007.1
2023-03-03T10:16:35.150Z,1007.1
2023-03-03T10:17:51.404Z,1007.1
2023-03-03T10:19:07.636Z,1007.1
2023-03-03T10:20:23.888Z,1007.1
2023-03-03T10:21:40.121Z,1007.1
2023-03-03T10:22:56.353Z,1007.1
2023-03-03T10:24:11.613Z,1007.1
2023-03-03T10:25:27.868Z,1007.1
2023-03-03T10:26:44.107Z,1007.1
2023-03-03T10:29:16.591Z,1007.1
2023-03-03T10:30:31.859Z,1007.1
2023-03-03T10:31:48.091Z,1007.1
2023-03-03T10:33:04.320Z,1007.2
2023-03-03T10:34:20.571Z,1007.1
2023-03-03T10:35:36.805Z,1007.1
2023-03-03T10:36:53.048Z,1007.1
2023-03-03T10:38:09.291Z,1007
2023-03-03T10:39:25.538Z,1007
2023-03-03T10:40:41.777Z,1007.1
2023-03-03T10:41:58.003Z,1007
2023-03-03T10:43:14.258Z,1007
2023-03-03T10:44:30.484Z,1006.9
2023-03-03T10:45:46.740Z,1007
2023-03-03T10:47:01.987Z,1007
2023-03-03T10:48:18.229Z,1007
2023-03-03T10:49:34.466Z,1007.1
2023-03-03T10:50:50.706Z,1007.1
2023-03-03T10:52:06.948Z,1007
2023-03-03T10:53:23.200Z,1007
2023-03-03T10:54:39.423Z,1007
2023-03-03T10:55:55.681Z,1007.1
2023-03-03T10:57:11.904Z,1007
2023-03-03T10:58:28.149Z,1007.1
2023-03-03T10:59:44.389Z,1007.1
2023-03-03T11:01:00.635Z,1007
2023-03-03T11:02:16.871Z,1007
2023-03-03T11:03:32.125Z,1007.1
2023-03-03T11:04:48.366Z,1007.1
2023-03-03T11:06:04.624Z,1007
2023-03-03T11:07:20.846Z,1007
2023-03-03T11:08:37.102Z,1007
2023-03-03T11:09:53.334Z,1007
2023-03-03T11:11:09.587Z,1007
2023-03-03T11:12:25.829Z,1007
2023-03-03T11:14:58.308Z,1006.9
2023-03-03T11:16:14.541Z,1007
2023-03-03T11:17:30.788Z,1006.9
2023-03-03T11:20:03.257Z,1006.9
2023-03-03T11:22:34.756Z,1006.9
2023-03-03T11:23:50.019Z,1007
2023-03-03T11:25:05.276Z,1007
2023-03-03T11:26:21.515Z,1007
2023-03-03T11:27:37.750Z,1006.9
2023-03-03T11:30:10.249Z,1007
2023-03-03T11:31:26.489Z,1007
2023-03-03T11:32:42.725Z,1006.9
2023-03-03T11:33:58.968Z,1007
2023-03-03T11:35:15.202Z,1006.9
2023-03-03T11:36:31.444Z,1006.8
2023-03-03T11:37:47.692Z,1006.9
2023-03-03T11:39:03.918Z,1007
2023-03-03T11:40:20.157Z,1006.9
2023-03-03T11:41:35.428Z,1007
2023-03-03T11:42:51.665Z,1006.9
2023-03-03T11:44:07.906Z,1007
2023-03-03T11:45:24.150Z,1006.9
2023-03-03T11:46:40.388Z,1006.9
2023-03-03T11:47:56.634Z,1007
2023-03-03T11:49:12.875Z,1007
2023-03-03T11:50:29.098Z,1007
2023-03-03T11:51:44.376Z,1007
2023-03-03T11:52:59.637Z,1007
2023-03-03T11:54:15.856Z,1007
2023-03-03T11:55:32.103Z,1007
2023-03-03T11:56:48.358Z,1007
2023-03-03T11:58:04.591Z,1007
2023-03-03T12:00:37.076Z,1006.9
2023-03-03T12:01:53.302Z,1006.9
2023-03-03T12:03:09.554Z,1006.9
2023-03-03T12:04:25.795Z,1006.8
2023-03-03T12:05:42.031Z,1006.8
2023-03-03T12:08:14.510Z,1006.8
2023-03-03T12:09:29.768Z,1006.7
2023-03-03T12:10:45.028Z,1006.8
2023-03-03T12:12:01.274Z,1006.7
2023-03-03T12:13:17.513Z,1006.8
2023-03-03T12:14:33.760Z,1006.7
2023-03-03T12:15:50.001Z,1006.7
2023-03-03T12:17:06.235Z,1006.7
2023-03-03T12:18:22.475Z,1006.7
2023-03-03T12:19:38.722Z,1006.7
2023-03-03T12:20:54.964Z,1006.7
2023-03-03T12:22:11.197Z,1006.6
2023-03-03T12:23:27.439Z,1006.6
2023-03-03T12:24:42.709Z,1006.5
2023-03-03T12:25:57.957Z,1006.6
2023-03-03T12:27:14.210Z,1006.6
2023-03-03T12:28:30.448Z,1006.5
2023-03-03T12:29:46.679Z,1006.5
2023-03-03T12:31:02.924Z,1006.5
2023-03-03T12:32:19.159Z,1006.5
2023-03-03T12:33:35.408Z,1006.6
2023-03-03T12:34:51.639Z,1006.6
2023-03-03T12:36:07.883Z,1006.6
2023-03-03T12:38:40.356Z,1006.5
2023-03-03T12:39:56.603Z,1006.5
2023-03-03T12:41:12.836Z,1006.6
2023-03-03T12:42:28.094Z,1006.6
2023-03-03T12:43:44.337Z,1006.6
2023-03-03T12:45:00.579Z,1006.6
2023-03-03T12:46:16.831Z,1006.5
2023-03-03T12:47:33.065Z,1006.5
2023-03-03T12:50:05.550Z,1006.5
2023-03-03T12:51:20.818Z,1006.5
2023-03-03T12:52:36.055Z,1006.5
2023-03-03T12:53:52.306Z,1006.4
2023-03-03T12:55:08.546Z,1006.4
2023-03-03T12:56:24.797Z,1006.3
2023-03-03T12:57:41.027Z,1006.4
2023-03-03T12:58:57.279Z,1006.4
2023-03-03T13:00:13.507Z,1006.4
2023-03-03T13:01:29.747Z,1006.4
2023-03-03T13:02:46.001Z,1006.4
2023-03-03T13:05:18.482Z,1006.3
2023-03-03T13:06:34.703Z,1006.4
2023-03-03T13:07:50.966Z,1006.3
2023-03-03T13:09:06.215Z,1006.3
2023-03-03T13:10:22.441Z,1006.3
2023-03-03T13:11:38.691Z,1006.2
2023-03-03T13:12:54.938Z,1006.2
2023-03-03T13:14:11.177Z,1006.2
2023-03-03T13:15:27.423Z,1006.2
2023-03-03T13:16:43.657Z,1006.2
2023-03-03T13:17:59.890Z,1006.2
2023-03-03T13:19:15.160Z,1006.2
2023-03-03T13:20:30.423Z,1006.2
2023-03-03T13:21:46.656Z,1006.2
2023-03-03T13:24:19.132Z,1006.2
2023-03-03T13:25:35.367Z,1006.2
2023-03-03T13:26:51.619Z,1006.2
2023-03-03T13:28:07.855Z,1006.2
2023-03-03T13:29:24.103Z,1006.2
2023-03-03T13:30:40.339Z,1006.2
2023-03-03T13:31:56.572Z,1006.3
2023-03-03T13:33:12.821Z,1006.3
2023-03-03T13:34:29.070Z,1006.3
2023-03-03T13:35:45.296Z,1006.3
2023-03-03T13:37:00.561Z,1006.3
2023-03-03T13:38:16.807Z,1006.3
2023-03-03T13:39:33.040Z,1006.2
2023-03-03T13:40:49.275Z,1006.2
2023-03-03T13:42:05.525Z,1006.2
2023-03-03T13:43:21.761Z,1006.2
2023-03-03T13:44:38.003Z,1006.2
2023-03-03T13:45:54.239Z,1006.2
2023-03-03T13:47:10.476Z,1006.2
2023-03-03T13:48:26.720Z,1006.2
2023-03-03T13:49:42.956Z,1006.2
2023-03-03T13:50:59.207Z,1006.2
2023-03-03T13:52:15.449Z,1006.2
2023-03-03T13:54:46.943Z,1006.2
2023-03-03T13:56:03.177Z,1006.1
2023-03-03T13:58:35.672Z,1006.1
2023-03-03T13:59:51.915Z,1006
2023-03-03T14:01:08.153Z,1006
2023-03-03T14:02:24.378Z,1006
2023-03-03T14:03:40.619Z,1006
2023-03-03T14:04:56.871Z,1006
2023-03-03T14:06:13.118Z,1006
2023-03-03T14:07:29.343Z,1006
2023-03-03T14:08:45.596Z,1006
2023-03-03T14:10:00.845Z,1005.9
2023-03-03T14:11:17.082Z,1005.9
2023-03-03T14:12:33.338Z,1005.9
2023-03-03T14:13:49.580Z,1005.8
2023-03-03T14:15:05.817Z,1005.8
2023-03-03T14:16:22.048Z,1005.7
2023-03-03T14:17:38.287Z,1005.7
2023-03-03T14:18:54.527Z,1005.7
2023-03-03T14:20:10.771Z,1005.7
2023-03-03T14:21:27.013Z,1005.7
2023-03-03T14:22:43.250Z,1005.7
2023-03-03T14:23:59.500Z,1005.7
2023-03-03T14:26:31.981Z,1005.7
2023-03-03T14:27:47.236Z,1005.7
2023-03-03T14:29:03.466Z,1005.7
2023-03-03T14:30:19.715Z,1005.7
2023-03-03T14:31:35.964Z,1005.7
2023-03-03T14:32:52.205Z,1005.6
2023-03-03T14:34:08.448Z,1005.6
2023-03-03T14:35:24.681Z,1005.6
2023-03-03T14:36:40.925Z,1005.6
2023-03-03T14:37:57.153Z,1005.6
2023-03-03T14:40:29.655Z,1005.6
2023-03-03T14:41:45.894Z,1005.6
2023-03-03T14:43:02.129Z,1005.7
2023-03-03T14:44:17.390Z,1005.7
2023-03-03T14:45:32.651Z,1005.7
2023-03-03T14:48:05.120Z,1005.6
2023-03-03T14:49:20.391Z,1005.6
2023-03-03T14:50:35.652Z,1005.6
2023-03-03T14:51:51.878Z,1005.6
2023-03-03T14:53:08.124Z,1005.5
2023-03-03T14:55:40.617Z,1005.6
2023-03-03T14:56:56.847Z,1005.6
2023-03-03T14:58:13.089Z,1005.6
2023-03-03T14:59:29.327Z,1005.6
2023-03-03T15:00:45.581Z,1005.6
2023-03-03T15:02:01.808Z,1005.5
2023-03-03T15:03:18.056Z,1005.6
2023-03-03T15:04:34.292Z,1005.6
2023-03-03T15:05:50.528Z,1005.6
2023-03-03T15:07:06.902Z,1005.6
2023-03-03T15:08:23.137Z,1005.6
2023-03-03T15:09:39.386Z,1005.6
2023-03-03T15:10:55.621Z,1005.6
2023-03-03T15:12:11.856Z,1005.6
2023-03-03T15:13:28.101Z,1005.5
2023-03-03T15:14:44.345Z,1005.6
2023-03-03T15:16:00.590Z,1005.6
2023-03-03T15:17:16.964Z,1005.6
2023-03-03T15:18:32.220Z,1005.6
2023-03-03T15:19:48.461Z,1005.5
2023-03-03T15:21:04.700Z,1005.5
2023-03-03T15:22:20.937Z,1005.6
2023-03-03T15:23:37.173Z,1005.6
2023-03-03T15:24:53.424Z,1005.6
2023-03-03T15:26:09.656Z,1005.6
2023-03-03T15:27:25.896Z,1005.5
2023-03-03T15:28:42.147Z,1005.6
2023-03-03T15:29:58.376Z,1005.6
2023-03-03T15:31:14.623Z,1005.5
2023-03-03T15:32:30.857Z,1005.6
2023-03-03T15:33:47.099Z,1005.6
2023-03-03T15:35:02.365Z,1005.5
2023-03-03T15:36:18.597Z,1005.5
2023-03-03T15:37:34.844Z,1005.5
2023-03-03T15:38:51.086Z,1005.6
2023-03-03T15:40:07.318Z,1005.6
2023-03-03T15:41:23.577Z,1005.5
2023-03-03T15:42:39.810Z,1005.5
2023-03-03T15:43:56.056Z,1005.5
2023-03-03T15:45:12.282Z,1005.5
2023-03-03T15:46:28.523Z,1005.5
2023-03-03T15:47:44.765Z,1005.5
2023-03-03T15:49:01.012Z,1005.5
2023-03-03T15:50:17.251Z,1005.5
2023-03-03T15:51:32.507Z,1005.5
2023-03-03T15:52:48.746Z,1005.5
2023-03-03T15:54:05.004Z,1005.5
2023-03-03T15:55:21.237Z,1005.5
2023-03-03T15:56:37.480Z,1005.4
2023-03-03T15:57:53.715Z,1005.5
2023-03-03T15:59:09.947Z,1005.5
2023-03-03T16:00:26.197Z,1005.5
2023-03-03T16:01:42.440Z,1005.6
2023-03-03T16:02:58.668Z,1005.5
2023-03-03T16:04:14.912Z,1005.6
2023-03-03T16:05:31.149Z,1005.6
2023-03-03T16:06:47.391Z,1005.6
2023-03-03T16:08:02.666Z,1005.5
2023-03-03T16:09:18.903Z,1005.5
2023-03-03T16:10:35.147Z,1005.5
2023-03-03T16:11:51.376Z,1005.5
2023-03-03T16:13:07.611Z,1005.5
2023-03-03T16:14:23.856Z,1005.4
2023-03-03T16:15:40.094Z,1005.4
2023-03-03T16:16:56.351Z,1005.4
2023-03-03T16:19:28.828Z,1005.4
2023-03-03T16:20:45.061Z,1005.4
2023-03-03T16:22:01.307Z,1005.4
2023-03-03T16:23:17.554Z,1005.4
2023-03-03T16:24:32.796Z,1005.4
2023-03-03T16:25:49.046Z,1005.4
2023-03-03T16:27:05.287Z,1005.4
2023-03-03T16:28:21.522Z,1005.4
2023-03-03T16:30:54.003Z,1005.5
2023-03-03T16:32:10.240Z,1005.5
2023-03-03T16:33:26.487Z,1005.5
2023-03-03T16:34:42.727Z,1005.5
2023-03-03T16:35:58.972Z,1005.6
2023-03-03T16:37:15.218Z,1005.6
2023-03-03T16:38:31.461Z,1005.6
2023-03-03T16:39:47.688Z,1005.6